Time;durP1;ratioP1;P1;durP2;ratioP2;P2;SDS_P1;SDS_P2;PMS_P1;PMS_P2;Temp;Humidity;BMP_temperature;BMP_pressure;BME280_temperature;BME280_humidity;BME280_pressure;Samples;Min_cycle;Max_cycle;Signal;HPM_P1;HPM_P2
2024/01/24 00:01:48;;;;;;;2.60;1.00;;;;;;;6.04;100.00;98642.03;6108517;19;20316;-74
2024/01/24 00:03:49;;;;;;;3.50;0.90;;;;;;;5.99;100.00;98621.13;6108101;19;20026;-73
2024/01/24 00:05:50;;;;;;;1.75;0.85;;;;;;;5.94;100.00;98596.63;6106806;19;20017;-74
2024/01/24 00:07:51;;;;;;;1.63;0.98;;;;;;;5.92;100.00;98587.94;6106458;19;20007;-73
2024/01/24 00:09:51;;;;;;;1.75;0.88;;;;;;;5.96;100.00;98586.13;6111949;19;20495;-74
2024/01/24 00:11:51;;;;;;;2.45;1.20;;;;;;;5.98;100.00;98580.28;6112831;19;20025;-74
2024/01/24 00:13:52;;;;;;;3.08;1.70;;;;;;;5.92;100.00;98557.72;6113239;19;20369;-73
2024/01/24 00:15:52;;;;;;;2.70;1.55;;;;;;;5.99;100.00;98549.72;6112476;19;20006;-73
2024/01/24 00:17:52;;;;;;;2.78;1.67;;;;;;;6.08;100.00;98571.56;6112891;19;20348;-73
2024/01/24 00:19:53;;;;;;;3.92;1.65;;;;;;;6.06;100.00;98560.91;6113595;19;20022;-73
2024/01/24 00:21:53;;;;;;;3.90;1.60;;;;;;;6.05;100.00;98562.06;6113873;19;20038;-73
2024/01/24 00:23:53;;;;;;;4.10;1.40;;;;;;;6.13;100.00;98533.66;6112781;19;20013;-73
2024/01/24 00:25:54;;;;;;;3.90;1.38;;;;;;;6.11;100.00;98527.69;6111159;19;20003;-74
2024/01/24 00:27:54;;;;;;;2.38;1.10;;;;;;;6.08;100.00;98522.91;6112742;19;20010;-74
2024/01/24 00:29:54;;;;;;;2.00;1.30;;;;;;;6.14;100.00;98518.78;6114771;19;20558;-73
2024/01/24 00:31:56;;;;;;;3.88;1.20;;;;;;;6.15;100.00;98522.31;6113305;19;20009;-74
2024/01/24 00:33:57;;;;;;;1.50;1.10;;;;;;;6.16;100.00;98504.69;6112730;19;20002;-73
2024/01/24 00:35:57;;;;;;;4.28;1.27;;;;;;;6.25;100.00;98510.84;6112423;19;20455;-74
2024/01/24 00:37:58;;;;;;;2.47;1.40;;;;;;;6.32;100.00;98499.25;6111689;19;19998;-74
2024/01/24 00:39:58;;;;;;;5.78;1.70;;;;;;;6.38;100.00;98523.41;6112157;19;20329;-74
2024/01/24 00:41:59;;;;;;;2.97;1.50;;;;;;;6.35;100.00;98529.59;6113013;19;20007;-73
2024/01/24 00:43:59;;;;;;;3.17;1.40;;;;;;;6.42;100.00;98516.03;6112558;19;20002;-74
2024/01/24 00:45:59;;;;;;;4.97;1.45;;;;;;;6.41;100.00;98505.41;6111740;19;20002;-74
2024/01/24 00:48:00;;;;;;;6.55;2.67;;;;;;;6.50;100.00;98505.25;6111792;19;20058;-73
2024/01/24 00:50:00;;;;;;;6.75;1.50;;;;;;;6.55;100.00;98502.28;6112450;19;20023;-73
2024/01/24 00:52:00;;;;;;;3.67;1.40;;;;;;;6.47;100.00;98482.03;6110318;19;20444;-73
2024/01/24 00:54:01;;;;;;;3.50;1.20;;;;;;;6.46;100.00;98472.19;6112344;19;20015;-74
2024/01/24 00:56:03;;;;;;;4.70;1.92;;;;;;;6.51;100.00;98469.16;6111073;19;20034;-74
2024/01/24 00:58:03;;;;;;;2.72;1.55;;;;;;;6.54;100.00;98457.50;6111974;19;20074;-73
2024/01/24 01:00:06;;;;;;;3.45;1.88;;;;;;;6.55;100.00;98459.09;6111333;19;20003;-74
2024/01/24 01:02:06;;;;;;;3.05;1.73;;;;;;;6.56;100.00;98462.63;6111758;19;20003;-74
2024/01/24 01:04:06;;;;;;;2.65;1.40;;;;;;;6.50;100.00;98459.31;6112080;19;20005;-74
2024/01/24 01:06:06;;;;;;;2.08;1.40;;;;;;;6.51;100.00;98457.38;6110135;19;20015;-74
2024/01/24 01:08:07;;;;;;;8.15;1.63;;;;;;;6.48;100.00;98440.44;6110871;19;20032;-74
2024/01/24 01:10:08;;;;;;;3.53;1.67;;;;;;;6.51;100.00;98443.63;6110826;19;20322;-74
2024/01/24 01:12:09;;;;;;;3.25;1.60;;;;;;;6.53;100.00;98419.34;6111790;19;20062;-73
2024/01/24 01:14:09;;;;;;;3.70;1.50;;;;;;;6.64;100.00;98426.72;6111492;19;19999;-74
2024/01/24 01:16:09;;;;;;;3.33;1.70;;;;;;;6.70;100.00;98427.25;6110398;19;20003;-74
2024/01/24 01:18:10;;;;;;;7.07;1.88;;;;;;;6.63;100.00;98416.09;6111483;19;20354;-74
2024/01/24 01:20:11;;;;;;;3.25;1.50;;;;;;;6.59;100.00;98404.97;6110303;19;20006;-73
2024/01/24 01:22:11;;;;;;;3.15;1.40;;;;;;;6.63;100.00;98380.34;6110735;19;20432;-74
2024/01/24 01:24:12;;;;;;;1.92;1.40;;;;;;;6.64;100.00;98412.97;6112145;19;20010;-74
2024/01/24 01:26:13;;;;;;;5.10;1.30;;;;;;;6.66;100.00;98396.91;6110182;19;20006;-73
2024/01/24 01:28:13;;;;;;;2.30;1.45;;;;;;;6.61;100.00;98386.19;6111477;19;20375;-74
2024/01/24 01:30:14;;;;;;;2.28;1.30;;;;;;;6.62;100.00;98379.56;6110959;19;20296;-74
2024/01/24 01:32:14;;;;;;;2.05;1.20;;;;;;;6.64;100.00;98374.50;6110912;19;20006;-73
2024/01/24 01:34:15;;;;;;;2.55;1.52;;;;;;;6.67;100.00;98364.72;6110432;19;19999;-74
2024/01/24 01:36:15;;;;;;;4.18;1.60;;;;;;;6.71;100.00;98393.13;6110479;19;20006;-74
2024/01/24 01:38:15;;;;;;;3.70;1.40;;;;;;;6.66;100.00;98399.66;6111436;19;20545;-74
2024/01/24 01:40:15;;;;;;;4.47;2.00;;;;;;;6.66;100.00;98393.38;6111873;19;19999;-74
2024/01/24 01:42:16;;;;;;;3.08;1.63;;;;;;;6.77;100.00;98402.69;6110401;19;19995;-74
2024/01/24 01:44:17;;;;;;;2.47;1.38;;;;;;;6.76;100.00;98368.88;6111466;19;20318;-74
2024/01/24 01:46:27;;;;;;;1.52;1.23;;;;;;;6.83;100.00;98365.53;6109882;19;19998;-73
2024/01/24 01:48:28;;;;;;;4.43;1.50;;;;;;;6.82;100.00;98349.38;6102616;19;20011;-74
2024/01/24 01:50:28;;;;;;;2.05;1.50;;;;;;;6.88;100.00;98345.22;6109699;19;20022;-74
2024/01/24 01:52:29;;;;;;;3.25;1.52;;;;;;;6.93;100.00;98369.69;6111069;19;20733;-74
2024/01/24 01:54:29;;;;;;;3.17;1.38;;;;;;;7.08;100.00;98357.88;6110992;19;19999;-74
2024/01/24 01:56:29;;;;;;;4.13;1.30;;;;;;;7.11;100.00;98354.38;6109944;19;20321;-73
2024/01/24 01:58:30;;;;;;;2.15;1.30;;;;;;;7.15;100.00;98346.22;6109827;19;19995;-74
2024/01/24 02:00:32;;;;;;;1.52;1.23;;;;;;;7.17;100.00;98336.44;6107568;19;20006;-74
2024/01/24 02:02:32;;;;;;;2.88;1.25;;;;;;;7.16;100.00;98323.84;6110055;19;19994;-73
2024/01/24 02:04:32;;;;;;;4.70;1.80;;;;;;;7.16;100.00;98336.81;6109446;19;19999;-74
2024/01/24 02:06:33;;;;;;;4.25;1.30;;;;;;;7.22;100.00;98338.13;6106677;19;20320;-74
2024/01/24 02:08:35;;;;;;;2.80;1.75;;;;;;;7.19;100.00;98320.38;6110615;19;19995;-74
2024/01/24 02:10:35;;;;;;;2.95;1.33;;;;;;;7.24;100.00;98347.63;6109936;19;20006;-73
2024/01/24 02:12:35;;;;;;;4.20;1.25;;;;;;;7.22;100.00;98307.88;6109961;19;20430;-74
2024/01/24 02:14:36;;;;;;;2.80;1.08;;;;;;;7.26;100.00;98312.28;6109104;19;20327;-74
2024/01/24 02:16:36;;;;;;;1.67;1.20;;;;;;;7.33;100.00;98314.41;6109104;19;20066;-74
2024/01/24 02:18:37;;;;;;;2.80;1.33;;;;;;;7.41;100.00;98304.34;6106493;19;20015;-74
2024/01/24 02:20:37;;;;;;;2.33;1.20;;;;;;;7.33;100.00;98287.66;6110307;19;20006;-74
2024/01/24 02:22:38;;;;;;;1.67;1.25;;;;;;;7.35;100.00;98300.25;6110190;19;20002;-74
2024/01/24 02:24:38;;;;;;;2.85;1.25;;;;;;;7.31;100.00;98302.97;6109783;19;20007;-74
2024/01/24 02:26:38;;;;;;;1.73;1.10;;;;;;;7.33;100.00;98286.88;6108330;19;20066;-74
2024/01/24 02:28:39;;;;;;;2.38;1.30;;;;;;;7.28;100.00;98292.66;6109610;19;20349;-73
2024/01/24 02:30:39;;;;;;;2.80;1.10;;;;;;;7.31;100.00;98286.44;6109877;19;20459;-74
2024/01/24 02:32:40;;;;;;;3.65;0.98;;;;;;;7.33;100.00;98281.38;6106952;19;20025;-74
2024/01/24 02:34:41;;;;;;;1.30;1.15;;;;;;;7.36;100.00;98288.09;6109823;19;20021;-74
2024/01/24 02:36:42;;;;;;;4.13;1.08;;;;;;;7.37;100.00;98306.22;6108573;19;20033;-74
2024/01/24 02:38:42;;;;;;;1.55;1.00;;;;;;;7.38;100.00;98305.06;6109024;19;19998;-74
2024/01/24 02:40:42;;;;;;;0.88;0.88;;;;;;;7.38;100.00;98311.38;6109720;19;20007;-74
2024/01/24 02:42:43;;;;;;;1.35;1.25;;;;;;;7.46;100.00;98299.34;6109644;19;20339;-74
2024/01/24 02:44:43;;;;;;;1.83;1.10;;;;;;;7.53;100.00;98295.91;6110009;19;20006;-74
2024/01/24 02:46:44;;;;;;;2.00;0.98;;;;;;;7.59;100.00;98297.22;6107556;19;19999;-74
2024/01/24 02:48:44;;;;;;;2.60;1.17;;;;;;;7.66;100.00;98308.41;6102120;19;20009;-74
2024/01/24 02:50:44;;;;;;;3.90;1.27;;;;;;;7.73;100.00;98302.25;6102034;19;20485;-74
2024/01/24 02:52:45;;;;;;;2.83;1.10;;;;;;;7.74;100.00;98288.09;6101906;19;20436;-73
2024/01/24 02:54:45;;;;;;;1.48;1.10;;;;;;;7.88;100.00;98295.84;6101914;19;20267;-74
2024/01/24 02:56:45;;;;;;;1.35;1.00;;;;;;;7.96;100.00;98311.34;6100666;19;20006;-74
2024/01/24 02:58:46;;;;;;;2.88;1.17;;;;;;;8.01;100.00;98302.78;6101527;19;20062;-73
2024/01/24 03:00:47;;;;;;;2.88;1.20;;;;;;;8.06;100.00;98294.22;6102427;19;20013;-74
2024/01/24 03:02:47;;;;;;;2.97;1.70;;;;;;;8.09;100.00;98276.94;6101483;19;20007;-74
2024/01/24 03:04:47;;;;;;;3.80;1.20;;;;;;;8.14;100.00;98286.88;6101689;19;20018;-74
2024/01/24 03:06:48;;;;;;;3.65;1.02;;;;;;;8.15;100.00;98302.25;6100839;19;20003;-74
2024/01/24 03:08:49;;;;;;;2.15;1.13;;;;;;;8.22;100.00;98298.84;6101309;19;20351;-74
2024/01/24 03:10:49;;;;;;;1.38;1.10;;;;;;;8.22;100.00;98324.44;6100706;19;20010;-74
2024/01/24 03:12:49;;;;;;;2.05;1.33;;;;;;;8.30;100.00;98311.56;6100766;19;20033;-74
2024/01/24 03:14:50;;;;;;;2.55;1.55;;;;;;;8.34;100.00;98309.66;6101726;19;20011;-74
2024/01/24 03:16:50;;;;;;;2.25;1.13;;;;;;;8.44;100.00;98306.34;6099316;19;20007;-74
2024/01/24 03:18:51;;;;;;;3.90;1.00;;;;;;;8.46;100.00;98297.72;6101602;19;20416;-74
2024/01/24 03:20:51;;;;;;;2.75;1.13;;;;;;;8.54;100.00;98294.69;6101476;19;20380;-74
2024/01/24 03:22:52;;;;;;;1.50;1.10;;;;;;;8.62;100.00;98290.88;6101633;19;20030;-74
2024/01/24 03:24:52;;;;;;;3.30;1.23;;;;;;;8.67;100.00;98301.59;6100613;19;20354;-74
2024/01/24 03:26:52;;;;;;;1.33;1.02;;;;;;;8.62;100.00;98307.44;6100940;19;20011;-74
2024/01/24 03:28:52;;;;;;;1.13;0.98;;;;;;;8.69;100.00;98281.94;6100839;19;20419;-74
2024/01/24 03:30:53;;;;;;;1.90;1.10;;;;;;;8.60;100.00;98298.72;6101343;19;20250;-74
2024/01/24 03:32:53;;;;;;;2.35;1.48;;;;;;;8.71;100.00;98283.16;6100748;19;20375;-74
2024/01/24 03:34:59;;;;;;;2.30;0.88;;;;;;;8.77;100.00;98286.41;6100433;19;20025;-74
2024/01/24 03:36:59;;;;;;;2.85;1.20;;;;;;;8.82;100.00;98286.06;6101453;19;20043;-74
2024/01/24 03:38:59;;;;;;;1.83;1.08;;;;;;;8.86;100.00;98286.94;6100989;19;20003;-74
2024/01/24 03:41:00;;;;;;;1.33;0.88;;;;;;;8.85;100.00;98271.53;6100439;19;20003;-74
2024/01/24 03:43:00;;;;;;;2.70;0.93;;;;;;;8.88;100.00;98270.78;6101824;19;20010;-74
2024/01/24 03:45:01;;;;;;;2.15;0.90;;;;;;;8.82;100.00;98255.72;6105114;19;20478;-74
2024/01/24 03:47:01;;;;;;;2.90;1.27;;;;;;;8.82;100.00;98274.25;6105501;19;20510;-74
2024/01/24 03:49:01;;;;;;;2.17;1.02;;;;;;;8.86;100.00;98258.56;6112707;19;20417;-74
2024/01/24 03:51:02;;;;;;;1.00;0.90;;;;;;;8.84;100.00;98264.41;6113835;19;20003;-74
2024/01/24 03:53:02;;;;;;;1.25;0.90;;;;;;;8.91;100.00;98263.72;6113199;19;20007;-74
2024/01/24 03:55:03;;;;;;;2.17;0.90;;;;;;;8.96;100.00;98264.22;6113005;19;20009;-74
2024/01/24 03:57:03;;;;;;;1.95;0.90;;;;;;;8.92;100.00;98244.03;6113088;19;20336;-74
2024/01/24 03:59:04;;;;;;;1.35;0.90;;;;;;;9.04;100.00;98270.63;6112845;19;19999;-74
2024/01/24 04:01:05;;;;;;;1.55;0.90;;;;;;;9.13;100.00;98242.75;6110495;19;20014;-74
2024/01/24 04:03:05;;;;;;;3.05;1.20;;;;;;;9.17;100.00;98263.69;6113882;19;20014;-74
2024/01/24 04:05:06;;;;;;;1.90;0.73;;;;;;;9.26;100.00;98230.28;6112225;19;20467;-74
2024/01/24 04:07:06;;;;;;;1.27;0.85;;;;;;;9.21;100.00;98248.00;6113197;19;20382;-74
2024/01/24 04:09:07;;;;;;;0.98;0.70;;;;;;;9.31;100.00;98243.78;6112424;19;20007;-74
2024/01/24 04:11:07;;;;;;;2.75;0.93;;;;;;;9.41;100.00;98245.06;6112311;19;20016;-74
2024/01/24 04:13:08;;;;;;;1.08;0.85;;;;;;;9.42;100.00;98235.63;6113053;19;20066;-74
2024/01/24 04:15:09;;;;;;;1.25;0.82;;;;;;;9.40;100.00;98226.91;6110877;19;20006;-74
2024/01/24 04:17:09;;;;;;;1.35;0.90;;;;;;;9.41;100.00;98212.72;6113302;19;20343;-74
2024/01/24 04:19:09;;;;;;;0.98;0.70;;;;;;;9.31;100.00;98194.09;6111887;19;20002;-74
2024/01/24 04:21:09;;;;;;;1.65;0.77;;;;;;;9.28;100.00;98194.84;6112907;19;20010;-73
2024/01/24 04:23:10;;;;;;;1.27;0.82;;;;;;;9.33;100.00;98194.50;6112427;19;20394;-74
2024/01/24 04:25:11;;;;;;;1.02;0.70;;;;;;;9.40;100.00;98205.63;6111384;19;20473;-74
2024/01/24 04:27:11;;;;;;;2.10;1.00;;;;;;;9.51;100.00;98203.78;6112683;19;20007;-74
2024/01/24 04:29:12;;;;;;;0.93;0.70;;;;;;;9.54;100.00;98200.28;6112344;19;20014;-74
2024/01/24 04:31:12;;;;;;;1.08;0.80;;;;;;;9.51;100.00;98198.25;6111879;19;20466;-74
2024/01/24 04:33:14;;;;;;;2.85;0.70;;;;;;;9.46;100.00;98192.28;6110887;19;20806;-74
2024/01/24 04:35:14;;;;;;;0.73;0.73;;;;;;;9.50;100.00;98195.88;6109977;19;20015;-74
2024/01/24 04:37:14;;;;;;;1.55;0.70;;;;;;;9.49;100.00;98174.94;6112611;19;20002;-74
2024/01/24 04:39:15;;;;;;;0.80;0.80;;;;;;;9.44;100.00;98192.66;6111290;19;20010;-74
2024/01/24 04:41:15;;;;;;;1.13;0.82;;;;;;;9.48;100.00;98182.44;6111645;19;20040;-74
2024/01/24 04:43:16;;;;;;;1.73;0.73;;;;;;;9.49;100.00;98194.28;6112938;19;20371;-74
2024/01/24 04:45:16;;;;;;;0.98;0.70;;;;;;;9.46;100.00;98135.09;6110942;19;20003;-74
2024/01/24 04:47:17;;;;;;;1.80;0.63;;;;;;;9.48;100.00;98134.72;6111701;19;20504;-74
2024/01/24 04:49:17;;;;;;;0.63;0.57;;;;;;;9.40;100.00;98135.81;6112773;19;20011;-74
2024/01/24 04:51:17;;;;;;;1.08;0.70;;;;;;;9.45;100.00;98122.47;6111295;19;20400;-74
2024/01/24 04:53:18;;;;;;;1.45;0.75;;;;;;;9.36;100.00;98159.84;6112607;19;20078;-74
2024/01/24 04:55:18;;;;;;;1.30;1.08;;;;;;;9.40;100.00;98116.47;6106333;19;20387;-74
2024/01/24 04:57:18;;;;;;;1.13;0.70;;;;;;;9.34;100.00;98113.25;6112035;19;20455;-74
2024/01/24 04:59:19;;;;;;;1.15;0.88;;;;;;;9.33;100.00;98114.44;6110300;19;20105;-74
2024/01/24 05:01:19;;;;;;;1.08;0.80;;;;;;;9.38;100.00;98091.22;6111624;19;20066;-74
2024/01/24 05:03:19;;;;;;;1.70;0.70;;;;;;;9.42;100.00;98106.63;6112138;19;20006;-74
2024/01/24 05:05:20;;;;;;;0.85;0.70;;;;;;;9.34;100.00;98093.94;6110543;19;20569;-73
2024/01/24 05:07:20;;;;;;;1.05;0.60;;;;;;;9.34;100.00;98099.44;6111612;19;20003;-74
2024/01/24 05:09:20;;;;;;;1.02;0.70;;;;;;;9.37;100.00;98081.34;6112013;19;20005;-74
2024/01/24 05:11:21;;;;;;;0.85;0.57;;;;;;;9.42;100.00;98105.84;6111642;19;20010;-74
2024/01/24 05:13:21;;;;;;;0.50;0.50;;;;;;;9.44;100.00;98114.56;6110429;19;20014;-74
2024/01/24 05:15:21;;;;;;;0.60;0.60;;;;;;;9.44;100.00;98090.50;6109692;19;20009;-74
2024/01/24 05:17:21;;;;;;;0.65;0.50;;;;;;;9.56;100.00;98117.81;6106905;19;20008;-74
2024/01/24 05:19:22;;;;;;;2.08;0.60;;;;;;;9.60;100.00;98128.09;6111618;19;20027;-74
2024/01/24 05:21:23;;;;;;;1.95;0.57;;;;;;;9.51;100.00;98129.19;6111996;19;20003;-74
2024/01/24 05:23:23;;;;;;;2.03;0.60;;;;;;;9.46;100.00;98099.19;6111350;19;20016;-74
2024/01/24 05:25:23;;;;;;;0.50;0.50;;;;;;;9.48;100.00;98090.53;6109903;19;20006;-74
2024/01/24 05:27:24;;;;;;;3.22;0.70;;;;;;;9.42;100.00;98090.06;6111769;19;20457;-74
2024/01/24 05:29:24;;;;;;;2.47;0.60;;;;;;;9.43;100.00;98116.53;6111029;19;20330;-74
2024/01/24 05:31:24;;;;;;;0.60;0.60;;;;;;;9.42;100.00;98097.56;6110053;19;20078;-74
2024/01/24 05:33:25;;;;;;;0.50;0.50;;;;;;;9.47;100.00;98111.81;6110485;19;20731;-74
2024/01/24 05:35:25;;;;;;;0.50;0.50;;;;;;;9.42;100.00;98097.56;6109850;19;20011;-74
2024/01/24 05:37:25;;;;;;;1.10;0.50;;;;;;;9.36;100.00;98085.28;6109046;19;20078;-74
2024/01/24 05:39:26;;;;;;;0.47;0.45;;;;;;;9.33;100.00;98106.16;6110289;19;20006;-74
2024/01/24 05:41:26;;;;;;;1.30;0.40;;;;;;;9.48;100.00;98102.34;6110711;19;20585;-74
2024/01/24 05:43:26;;;;;;;0.50;0.43;;;;;;;9.49;100.00;98070.81;6110683;19;20066;-74
2024/01/24 05:45:28;;;;;;;0.40;0.40;;;;;;;9.49;100.00;98111.44;6109136;19;20062;-74
2024/01/24 05:47:28;;;;;;;0.45;0.40;;;;;;;9.49;100.00;98130.78;6110071;19;20020;-74
2024/01/24 05:49:28;;;;;;;0.50;0.50;;;;;;;9.55;100.00;98115.44;6110292;19;20006;-74
2024/01/24 05:51:28;;;;;;;0.77;0.50;;;;;;;9.60;100.00;98098.53;6110461;19;20058;-74
2024/01/24 05:53:29;;;;;;;0.50;0.50;;;;;;;9.54;100.00;98128.47;6109248;19;20514;-74
2024/01/24 05:55:29;;;;;;;2.38;0.50;;;;;;;9.57;100.00;98124.94;6107716;19;20074;-74
2024/01/24 05:57:29;;;;;;;0.52;0.52;;;;;;;9.56;100.00;98106.78;6109274;19;20735;-74
2024/01/24 05:59:30;;;;;;;0.85;0.60;;;;;;;9.62;100.00;98107.22;6110144;19;20013;-74
2024/01/24 06:01:30;;;;;;;0.40;0.40;;;;;;;9.48;100.00;98099.59;6109862;19;20041;-74
2024/01/24 06:03:30;;;;;;;0.47;0.47;;;;;;;9.48;100.00;98110.66;6109842;19;20043;-74
2024/01/24 06:05:31;;;;;;;0.40;0.40;;;;;;;9.46;100.00;98131.53;6106694;19;20030;-74
2024/01/24 06:07:31;;;;;;;0.40;0.40;;;;;;;9.44;100.00;98137.44;6109868;19;20007;-74
2024/01/24 06:09:32;;;;;;;0.52;0.50;;;;;;;9.54;100.00;98133.19;6110087;19;20003;-74
2024/01/24 06:11:32;;;;;;;0.38;0.38;;;;;;;9.46;100.00;98113.00;6110103;19;20403;-74
2024/01/24 06:13:32;;;;;;;0.40;0.40;;;;;;;9.45;100.00;98103.13;6110074;19;20017;-74
2024/01/24 06:15:33;;;;;;;0.77;0.52;;;;;;;9.46;100.00;98101.94;6109296;19;20030;-74
2024/01/24 06:17:34;;;;;;;0.45;0.45;;;;;;;9.52;100.00;98083.06;6108881;19;20006;-74
2024/01/24 06:19:34;;;;;;;0.68;0.57;;;;;;;9.58;100.00;98098.91;6109221;19;20706;-75
2024/01/24 06:21:34;;;;;;;0.40;0.40;;;;;;;9.59;100.00;98080.34;6109651;19;20002;-74
2024/01/24 06:23:35;;;;;;;0.65;0.40;;;;;;;9.67;100.00;98097.78;6109873;19;20007;-74
2024/01/24 06:25:35;;;;;;;0.50;0.50;;;;;;;9.68;100.00;98091.91;6107544;19;20348;-74
2024/01/24 06:27:36;;;;;;;0.40;0.40;;;;;;;9.81;100.00;98100.69;6108880;19;20016;-75
2024/01/24 06:29:36;;;;;;;0.40;0.40;;;;;;;9.85;100.00;98090.47;6109832;19;20037;-74
2024/01/24 06:31:36;;;;;;;0.50;0.50;;;;;;;9.85;100.00;98094.03;6108784;19;20435;-74
2024/01/24 06:33:37;;;;;;;1.83;0.50;;;;;;;9.90;100.00;98106.69;6109395;19;20368;-74
2024/01/24 06:35:37;;;;;;;0.90;0.40;;;;;;;9.90;100.00;98094.84;6108591;19;20394;-74
2024/01/24 06:37:38;;;;;;;2.05;0.60;;;;;;;10.04;100.00;98111.53;6109494;19;20014;-74
2024/01/24 06:39:38;;;;;;;0.30;0.30;;;;;;;10.16;100.00;98096.59;6107989;19;20039;-74
2024/01/24 06:41:38;;;;;;;0.40;0.40;;;;;;;10.15;100.00;98117.91;6109180;19;20334;-74
2024/01/24 06:43:42;;;;;;;0.40;0.40;;;;;;;10.14;100.00;98124.63;6108052;19;20002;-74
2024/01/24 06:45:42;;;;;;;0.40;0.40;;;;;;;10.17;100.00;98128.59;6107372;19;20367;-74
2024/01/24 06:47:43;;;;;;;0.30;0.30;;;;;;;10.11;100.00;98133.72;6098985;19;20006;-74
2024/01/24 06:49:44;;;;;;;0.50;0.43;;;;;;;10.20;100.00;98148.00;6108938;19;20003;-74
2024/01/24 06:51:45;;;;;;;0.55;0.55;;;;;;;10.20;100.00;98136.94;6109049;19;20005;-74
2024/01/24 06:53:46;;;;;;;0.63;0.60;;;;;;;10.17;100.00;98128.59;6109460;19;21396;-74
2024/01/24 06:55:47;;;;;;;0.52;0.50;;;;;;;10.16;100.00;98136.09;6106687;19;19998;-74
2024/01/24 06:57:47;;;;;;;0.52;0.52;;;;;;;10.10;100.00;98126.59;6108442;19;20023;-74
2024/01/24 06:59:47;;;;;;;0.63;0.60;;;;;;;10.17;100.00;98131.34;6108361;19;19998;-74
2024/01/24 07:01:48;;;;;;;0.60;0.60;;;;;;;10.17;100.00;98145.19;6108002;19;20010;-74
2024/01/24 07:03:48;;;;;;;5.35;0.70;;;;;;;10.24;100.00;98143.28;6108650;19;20418;-73
2024/01/24 07:05:48;;;;;;;0.60;0.60;;;;;;;10.30;100.00;98168.63;6106735;19;20010;-74
2024/01/24 07:07:49;;;;;;;0.50;0.50;;;;;;;10.28;100.00;98162.69;6105310;19;20015;-74
2024/01/24 07:09:50;;;;;;;1.38;0.57;;;;;;;10.19;100.00;98173.25;6108518;19;20006;-74
2024/01/24 07:11:51;;;;;;;1.30;1.00;;;;;;;10.20;100.00;98141.66;6108173;19;20002;-74
2024/01/24 07:13:51;;;;;;;0.75;0.50;;;;;;;10.19;100.00;98142.84;6108757;19;20297;-74
2024/01/24 07:15:52;;;;;;;0.45;0.45;;;;;;;10.14;100.00;98153.06;6106927;19;20019;-74
2024/01/24 07:17:52;;;;;;;0.93;0.65;;;;;;;10.08;100.00;98167.63;6106667;19;20130;-74
2024/01/24 07:19:52;;;;;;;1.58;0.90;;;;;;;10.07;100.00;98155.78;6107007;19;19995;-74
2024/01/24 07:21:52;;;;;;;1.13;0.70;;;;;;;10.06;100.00;98159.72;6108088;19;20518;-75
2024/01/24 07:23:53;;;;;;;1.23;0.95;;;;;;;10.06;100.00;98195.66;6107561;19;20066;-74
2024/01/24 07:25:53;;;;;;;1.10;0.80;;;;;;;10.08;100.00;98178.69;6105760;19;20010;-74
2024/01/24 07:27:53;;;;;;;0.60;0.60;;;;;;;10.03;100.00;98157.72;6106279;19;20030;-74
2024/01/24 07:29:54;;;;;;;0.50;0.50;;;;;;;9.99;100.00;98159.66;6107147;19;20070;-74
2024/01/24 07:31:54;;;;;;;1.67;0.50;;;;;;;10.01;100.00;98162.03;6107890;19;20002;-74
2024/01/24 07:33:54;;;;;;;1.10;0.80;;;;;;;10.19;100.00;98159.44;6108071;19;20010;-74
2024/01/24 07:35:54;;;;;;;1.27;1.00;;;;;;;10.19;100.00;98168.53;6105731;19;20002;-74
2024/01/24 07:37:55;;;;;;;0.88;0.77;;;;;;;10.28;100.00;98180.06;6108069;19;20027;-74
2024/01/24 07:39:55;;;;;;;1.50;1.10;;;;;;;10.26;100.00;98181.63;6106205;19;20018;-74
2024/01/24 07:41:56;;;;;;;0.77;0.77;;;;;;;10.30;100.00;98183.25;6107793;19;19994;-74
2024/01/24 07:43:57;;;;;;;0.77;0.70;;;;;;;10.27;100.00;98181.25;6107905;19;20016;-74
2024/01/24 07:45:58;;;;;;;0.75;0.60;;;;;;;10.28;100.00;98182.06;6106296;19;20065;-74
2024/01/24 07:47:58;;;;;;;2.15;1.15;;;;;;;10.34;100.00;98186.03;6101920;19;20012;-74
2024/01/24 07:49:59;;;;;;;2.13;1.00;;;;;;;10.44;100.00;98196.41;6100290;19;20315;-74
2024/01/24 07:52:00;;;;;;;1.33;0.90;;;;;;;10.42;100.00;98198.72;6100099;19;20579;-74
2024/01/24 07:54:00;;;;;;;0.68;0.68;;;;;;;10.42;100.00;98201.50;6099919;19;20042;-74
2024/01/24 07:56:00;;;;;;;0.77;0.70;;;;;;;10.40;100.00;98207.41;6098890;19;20489;-74
2024/01/24 07:58:01;;;;;;;0.60;0.60;;;;;;;10.36;100.00;98190.00;6099795;19;20019;-74
2024/01/24 08:00:03;;;;;;;0.70;0.70;;;;;;;10.29;100.00;98192.72;6099170;19;20002;-74
2024/01/24 08:02:04;;;;;;;;;;;;;;;10.21;100.00;98204.06;6098457;19;20070;-74
2024/01/24 08:04:04;;;;;;;0.60;0.60;;;;;;;10.14;100.00;98188.22;6100233;19;19910;-74
2024/01/24 08:06:04;;;;;;;1.00;0.82;;;;;;;10.10;100.00;98217.81;6098087;19;20025;-74
2024/01/24 08:08:05;;;;;;;1.38;0.70;;;;;;;10.07;100.00;98221.31;6098173;19;20003;-74
2024/01/24 08:10:06;;;;;;;2.63;0.70;;;;;;;10.13;100.00;98204.00;6099314;19;20007;-74
2024/01/24 08:12:07;;;;;;;3.10;0.90;;;;;;;10.20;100.00;98216.31;6099387;19;19995;-74
2024/01/24 08:14:08;;;;;;;0.75;0.50;;;;;;;10.27;100.00;98235.75;6098894;19;20401;-74
2024/01/24 08:16:08;;;;;;;1.17;0.65;;;;;;;10.36;100.00;98241.75;6097915;19;20006;-74
2024/01/24 08:18:09;;;;;;;1.10;0.60;;;;;;;10.36;100.00;98239.00;6099020;19;19995;-74
2024/01/24 08:20:10;;;;;;;0.73;0.63;;;;;;;10.44;100.00;98262.78;6099061;19;20312;-74
2024/01/24 08:22:10;;;;;;;1.40;1.15;;;;;;;10.51;100.00;98251.78;6097933;19;20495;-74
2024/01/24 08:24:11;;;;;;;0.80;0.70;;;;;;;10.50;100.00;98236.31;6098939;19;19995;-74
2024/01/24 08:26:12;;;;;;;3.28;0.63;;;;;;;10.55;100.00;98227.69;6097633;19;19999;-74
2024/01/24 08:28:12;;;;;;;2.33;0.75;;;;;;;10.62;100.00;98235.25;6098780;19;20330;-74
2024/01/24 08:30:12;;;;;;;0.82;0.68;;;;;;;10.63;100.00;98237.63;6101817;19;19998;-74
2024/01/24 08:32:13;;;;;;;2.88;0.80;;;;;;;10.72;100.00;98233.72;6104787;19;20323;-74
2024/01/24 08:34:13;;;;;;;1.40;0.70;;;;;;;10.72;100.00;98240.06;6103632;19;20006;-74
2024/01/24 08:36:13;;;;;;;2.50;0.80;;;;;;;10.69;100.00;98305.28;6103587;19;20003;-74
2024/01/24 08:38:14;;;;;;;2.30;0.80;;;;;;;10.73;100.00;98285.91;6103549;19;20426;-74
2024/01/24 08:40:17;;;;;;;1.88;0.80;;;;;;;10.78;100.00;98284.78;6104632;19;20242;-74
2024/01/24 08:42:17;;;;;;;1.45;0.90;;;;;;;10.77;100.00;98258.28;6104697;19;20266;-74
2024/01/24 08:44:18;;;;;;;1.90;0.60;;;;;;;10.79;100.00;98253.16;6104500;19;20013;-74
2024/01/24 08:46:18;;;;;;;2.67;0.80;;;;;;;10.78;100.00;98254.34;6103861;19;20007;-74
2024/01/24 08:48:20;;;;;;;2.33;1.25;;;;;;;10.78;100.00;98238.53;6106808;19;20006;-74
2024/01/24 08:50:22;;;;;;;1.23;0.82;;;;;;;10.83;100.00;98267.78;6111117;19;20374;-74
2024/01/24 08:52:23;;;;;;;2.95;0.82;;;;;;;10.90;100.00;98270.63;6111449;19;20590;-74
2024/01/24 08:54:24;;;;;;;1.15;0.65;;;;;;;10.94;100.00;98277.00;6112475;19;20003;-74
2024/01/24 08:56:24;;;;;;;1.00;0.82;;;;;;;10.91;100.00;98277.75;6109833;19;20373;-73
2024/01/24 08:58:24;;;;;;;0.70;0.70;;;;;;;10.95;100.00;98292.41;6110514;19;20007;-74
2024/01/24 09:00:24;;;;;;;2.85;0.98;;;;;;;10.92;100.00;98299.53;6112366;19;20006;-74
2024/01/24 09:02:26;;;;;;;2.88;0.88;;;;;;;10.87;100.00;98268.63;6110243;19;20455;-74
2024/01/24 09:04:26;;;;;;;2.40;1.08;;;;;;;10.79;100.00;98280.84;6111989;19;20459;-74
2024/01/24 09:06:27;;;;;;;4.75;1.20;;;;;;;10.83;100.00;98314.84;6107492;19;20009;-74
2024/01/24 09:08:27;;;;;;;4.57;1.40;;;;;;;10.81;100.00;98333.81;6111248;19;20408;-74
2024/01/24 09:10:27;;;;;;;7.88;1.88;;;;;;;10.79;100.00;98344.47;6111486;19;20017;-73
2024/01/24 09:12:28;;;;;;;5.97;1.63;;;;;;;10.79;100.00;98327.88;6110210;19;20336;-74
2024/01/24 09:14:28;;;;;;;5.22;1.20;;;;;;;10.69;100.00;98334.91;6111278;19;20017;-73
2024/01/24 09:16:28;;;;;;;2.45;1.00;;;;;;;10.54;100.00;98322.91;6110739;19;20043;-74
2024/01/24 09:18:28;;;;;;;4.28;1.40;;;;;;;10.45;100.00;98324.41;6109772;19;20006;-74
2024/01/24 09:20:29;;;;;;;6.50;1.55;;;;;;;10.38;100.00;98320.41;6110034;19;20010;-74
2024/01/24 09:22:29;;;;;;;6.18;1.30;;;;;;;10.31;100.00;98330.59;6110887;19;20011;-74
2024/01/24 09:24:29;;;;;;;5.93;1.60;;;;;;;10.24;100.00;98330.53;6111539;19;20321;-74
2024/01/24 09:26:30;;;;;;;5.35;1.27;;;;;;;10.24;100.00;98322.22;6110319;19;20467;-73